Terminal Aerodrome Forecast
Issued by NWS Quad Cities IA IL

Home | Current Version | Previous Version | Text Only | Print | Product List | Glossary On
Versions: 1 2 3 4 5 6 7 8 9 10 11 12 13 14 15
000
FTUS43 KDVN 161920 AAA
TAFMLI
TAF AMD
KMLI 161920Z 1619/1718 30011KT P6SM OVC040
      TEMPO 1619/1621 BKN016
     FM171000 26007KT P6SM SCT090=

USA.gov is the U.S. government's official web portal to all federal, state and local government web resources and services.